METAR Data

Data at: 0644 UTC 28 Sep 2022

METAR for:KPVC (Provincetown Muni, MA, US)
Text:KPVC 280556Z AUTO 25010KT 10SM CLR 15/11 A2994 RMK AO2 SLP139 T01500111 10167 20150 51010
Temperature: 15.0°C ( 59°F)
Dewpoint: 11.1°C ( 52°F) [RH = 77%]
Pressure (altimeter):29.94 inches Hg (1014.0 mb) [Sea level pressure: 1013.9 mb]
Winds:from the WSW (250 degrees) at 12 MPH (10 knots; 5.1 m/s)
Visibility:10 or more sm (16+ km)
Ceiling:at least 12,000 feet AGL
Clouds:sky clear below 12,000 feet AGL
QC Flag:automated observation with no human augmentation